sensor_id;sensor_type;location;lat;lon;timestamp;P1;durP1;ratioP1;P2;durP2;ratioP2
11010;SDS011;5558;42.702;23.178;2022-08-07T00:00:45;4.07;;;3.77;;
11010;SDS011;5558;42.702;23.178;2022-08-07T00:03:12;4.73;;;4.10;;
11010;SDS011;5558;42.702;23.178;2022-08-07T00:05:40;4.53;;;3.93;;
11010;SDS011;5558;42.702;23.178;2022-08-07T00:08:07;4.67;;;4.27;;
11010;SDS011;5558;42.702;23.178;2022-08-07T00:10:35;4.30;;;3.90;;
11010;SDS011;5558;42.702;23.178;2022-08-07T00:13:03;5.53;;;4.20;;
11010;SDS011;5558;42.702;23.178;2022-08-07T00:15:31;4.70;;;4.20;;
11010;SDS011;5558;42.702;23.178;2022-08-07T00:17:58;4.87;;;4.43;;
11010;SDS011;5558;42.702;23.178;2022-08-07T00:20:25;4.50;;;4.10;;
11010;SDS011;5558;42.702;23.178;2022-08-07T00:22:52;5.07;;;4.60;;
11010;SDS011;5558;42.702;23.178;2022-08-07T00:25:19;4.37;;;3.97;;
11010;SDS011;5558;42.702;23.178;2022-08-07T00:27:49;4.83;;;4.37;;
11010;SDS011;5558;42.702;23.178;2022-08-07T00:30:16;4.43;;;4.10;;
11010;SDS011;5558;42.702;23.178;2022-08-07T00:32:42;4.33;;;4.03;;
11010;SDS011;5558;42.702;23.178;2022-08-07T00:35:12;4.00;;;3.70;;
11010;SDS011;5558;42.702;23.178;2022-08-07T00:37:38;4.40;;;4.00;;
11010;SDS011;5558;42.702;23.178;2022-08-07T00:40:05;4.80;;;4.40;;
11010;SDS011;5558;42.702;23.178;2022-08-07T00:42:34;4.57;;;4.17;;
11010;SDS011;5558;42.702;23.178;2022-08-07T00:45:02;4.50;;;4.10;;
11010;SDS011;5558;42.702;23.178;2022-08-07T00:47:30;4.80;;;4.30;;
11010;SDS011;5558;42.702;23.178;2022-08-07T00:49:57;5.20;;;4.70;;
11010;SDS011;5558;42.702;23.178;2022-08-07T00:52:24;4.90;;;4.40;;
11010;SDS011;5558;42.702;23.178;2022-08-07T00:54:51;5.37;;;4.40;;
11010;SDS011;5558;42.702;23.178;2022-08-07T00:57:18;4.40;;;4.00;;
11010;SDS011;5558;42.702;23.178;2022-08-07T00:59:46;5.03;;;4.30;;
11010;SDS011;5558;42.702;23.178;2022-08-07T01:02:14;4.73;;;4.33;;
11010;SDS011;5558;42.702;23.178;2022-08-07T01:04:41;4.80;;;4.40;;
11010;SDS011;5558;42.702;23.178;2022-08-07T01:07:08;4.83;;;4.43;;
11010;SDS011;5558;42.702;23.178;2022-08-07T01:09:34;5.17;;;4.77;;
11010;SDS011;5558;42.702;23.178;2022-08-07T01:12:01;4.90;;;4.40;;
11010;SDS011;5558;42.702;23.178;2022-08-07T01:14:29;5.20;;;4.50;;
11010;SDS011;5558;42.702;23.178;2022-08-07T01:16:57;4.80;;;4.37;;
11010;SDS011;5558;42.702;23.178;2022-08-07T01:19:26;5.17;;;4.67;;
11010;SDS011;5558;42.702;23.178;2022-08-07T01:21:55;5.43;;;4.93;;
11010;SDS011;5558;42.702;23.178;2022-08-07T01:24:22;4.53;;;4.13;;
11010;SDS011;5558;42.702;23.178;2022-08-07T01:26:50;5.30;;;4.80;;
11010;SDS011;5558;42.702;23.178;2022-08-07T01:29:17;4.93;;;4.43;;
11010;SDS011;5558;42.702;23.178;2022-08-07T01:31:44;4.87;;;4.47;;
11010;SDS011;5558;42.702;23.178;2022-08-07T01:34:11;4.70;;;4.30;;
11010;SDS011;5558;42.702;23.178;2022-08-07T01:36:39;5.10;;;4.60;;
11010;SDS011;5558;42.702;23.178;2022-08-07T01:39:07;5.50;;;5.00;;
11010;SDS011;5558;42.702;23.178;2022-08-07T01:41:34;4.83;;;4.43;;
11010;SDS011;5558;42.702;23.178;2022-08-07T01:44:03;5.10;;;4.70;;
11010;SDS011;5558;42.702;23.178;2022-08-07T01:46:30;4.93;;;4.53;;
11010;SDS011;5558;42.702;23.178;2022-08-07T01:48:57;5.03;;;4.63;;
11010;SDS011;5558;42.702;23.178;2022-08-07T01:51:24;5.50;;;5.00;;
11010;SDS011;5558;42.702;23.178;2022-08-07T01:53:54;5.30;;;4.80;;
11010;SDS011;5558;42.702;23.178;2022-08-07T01:56:25;5.40;;;4.90;;
11010;SDS011;5558;42.702;23.178;2022-08-07T01:58:57;5.10;;;4.60;;
11010;SDS011;5558;42.702;23.178;2022-08-07T02:01:31;5.43;;;4.93;;
11010;SDS011;5558;42.702;23.178;2022-08-07T02:04:02;5.77;;;5.20;;
11010;SDS011;5558;42.702;23.178;2022-08-07T02:06:34;5.40;;;4.90;;
11010;SDS011;5558;42.702;23.178;2022-08-07T02:09:03;5.23;;;4.80;;
11010;SDS011;5558;42.702;23.178;2022-08-07T02:11:36;5.60;;;5.10;;
11010;SDS011;5558;42.702;23.178;2022-08-07T02:14:05;5.97;;;5.47;;
11010;SDS011;5558;42.702;23.178;2022-08-07T02:16:34;5.90;;;5.40;;
11010;SDS011;5558;42.702;23.178;2022-08-07T02:19:05;6.80;;;5.90;;
11010;SDS011;5558;42.702;23.178;2022-08-07T02:21:35;6.73;;;6.10;;
11010;SDS011;5558;42.702;23.178;2022-08-07T02:24:04;6.53;;;5.93;;
11010;SDS011;5558;42.702;23.178;2022-08-07T02:26:32;6.83;;;6.23;;
11010;SDS011;5558;42.702;23.178;2022-08-07T02:29:04;7.20;;;6.50;;
11010;SDS011;5558;42.702;23.178;2022-08-07T02:31:33;7.43;;;6.40;;
11010;SDS011;5558;42.702;23.178;2022-08-07T02:34:01;8.03;;;7.23;;
11010;SDS011;5558;42.702;23.178;2022-08-07T02:36:30;10.90;;;7.83;;
11010;SDS011;5558;42.702;23.178;2022-08-07T02:38:58;9.03;;;8.30;;
11010;SDS011;5558;42.702;23.178;2022-08-07T02:41:27;8.03;;;7.33;;
11010;SDS011;5558;42.702;23.178;2022-08-07T02:43:56;8.57;;;7.60;;
11010;SDS011;5558;42.702;23.178;2022-08-07T02:46:26;8.47;;;7.77;;
11010;SDS011;5558;42.702;23.178;2022-08-07T02:48:55;8.10;;;7.40;;
11010;SDS011;5558;42.702;23.178;2022-08-07T02:51:22;8.30;;;7.40;;
11010;SDS011;5558;42.702;23.178;2022-08-07T02:53:52;8.00;;;7.20;;
11010;SDS011;5558;42.702;23.178;2022-08-07T02:56:21;7.90;;;7.20;;
11010;SDS011;5558;42.702;23.178;2022-08-07T02:58:51;7.33;;;6.63;;
11010;SDS011;5558;42.702;23.178;2022-08-07T03:01:21;6.97;;;6.37;;
11010;SDS011;5558;42.702;23.178;2022-08-07T03:03:50;7.30;;;6.60;;
11010;SDS011;5558;42.702;23.178;2022-08-07T03:06:18;7.57;;;6.87;;
11010;SDS011;5558;42.702;23.178;2022-08-07T03:08:48;8.07;;;7.27;;
11010;SDS011;5558;42.702;23.178;2022-08-07T03:11:15;7.10;;;6.40;;
11010;SDS011;5558;42.702;23.178;2022-08-07T03:13:42;7.70;;;7.00;;
11010;SDS011;5558;42.702;23.178;2022-08-07T03:16:09;8.07;;;7.23;;
11010;SDS011;5558;42.702;23.178;2022-08-07T03:18:38;7.13;;;6.50;;
11010;SDS011;5558;42.702;23.178;2022-08-07T03:21:06;7.77;;;6.97;;
11010;SDS011;5558;42.702;23.178;2022-08-07T03:23:33;7.60;;;7.00;;
11010;SDS011;5558;42.702;23.178;2022-08-07T03:26:00;6.87;;;6.27;;
11010;SDS011;5558;42.702;23.178;2022-08-07T03:28:28;7.63;;;6.90;;
11010;SDS011;5558;42.702;23.178;2022-08-07T03:30:56;8.30;;;7.50;;
11010;SDS011;5558;42.702;23.178;2022-08-07T03:33:39;7.43;;;6.83;;
11010;SDS011;5558;42.702;23.178;2022-08-07T03:36:08;7.77;;;7.07;;
11010;SDS011;5558;42.702;23.178;2022-08-07T03:38:37;7.87;;;7.17;;
11010;SDS011;5558;42.702;23.178;2022-08-07T03:41:05;7.70;;;7.00;;
11010;SDS011;5558;42.702;23.178;2022-08-07T03:43:33;7.73;;;7.03;;
11010;SDS011;5558;42.702;23.178;2022-08-07T03:46:00;7.23;;;6.60;;
11010;SDS011;5558;42.702;23.178;2022-08-07T03:48:28;7.60;;;6.90;;
11010;SDS011;5558;42.702;23.178;2022-08-07T03:50:58;7.13;;;6.53;;
11010;SDS011;5558;42.702;23.178;2022-08-07T03:53:26;7.47;;;6.80;;
11010;SDS011;5558;42.702;23.178;2022-08-07T03:55:53;7.10;;;6.40;;
11010;SDS011;5558;42.702;23.178;2022-08-07T03:58:22;7.10;;;6.50;;
11010;SDS011;5558;42.702;23.178;2022-08-07T04:00:49;6.50;;;5.97;;
11010;SDS011;5558;42.702;23.178;2022-08-07T04:03:19;6.27;;;5.70;;
11010;SDS011;5558;42.702;23.178;2022-08-07T04:05:46;5.93;;;5.33;;
11010;SDS011;5558;42.702;23.178;2022-08-07T04:08:14;6.13;;;5.53;;
11010;SDS011;5558;42.702;23.178;2022-08-07T04:10:42;6.13;;;5.63;;
11010;SDS011;5558;42.702;23.178;2022-08-07T04:13:10;6.60;;;5.97;;
11010;SDS011;5558;42.702;23.178;2022-08-07T04:15:37;5.97;;;5.37;;
11010;SDS011;5558;42.702;23.178;2022-08-07T04:18:05;6.43;;;5.93;;
11010;SDS011;5558;42.702;23.178;2022-08-07T04:20:32;5.63;;;5.23;;
11010;SDS011;5558;42.702;23.178;2022-08-07T04:22:59;6.13;;;5.60;;
11010;SDS011;5558;42.702;23.178;2022-08-07T04:25:28;6.57;;;5.97;;
11010;SDS011;5558;42.702;23.178;2022-08-07T04:27:57;6.50;;;5.90;;
11010;SDS011;5558;42.702;23.178;2022-08-07T04:30:24;6.67;;;6.03;;
11010;SDS011;5558;42.702;23.178;2022-08-07T04:32:51;6.13;;;5.53;;
11010;SDS011;5558;42.702;23.178;2022-08-07T04:35:18;6.70;;;6.00;;
11010;SDS011;5558;42.702;23.178;2022-08-07T04:37:45;6.30;;;5.70;;
11010;SDS011;5558;42.702;23.178;2022-08-07T04:40:12;6.43;;;5.83;;
11010;SDS011;5558;42.702;23.178;2022-08-07T04:42:41;6.37;;;5.80;;
11010;SDS011;5558;42.702;23.178;2022-08-07T04:45:08;5.93;;;5.43;;
11010;SDS011;5558;42.702;23.178;2022-08-07T04:47:40;6.10;;;5.60;;
11010;SDS011;5558;42.702;23.178;2022-08-07T04:50:13;6.30;;;5.70;;
11010;SDS011;5558;42.702;23.178;2022-08-07T04:52:49;6.17;;;5.67;;
11010;SDS011;5558;42.702;23.178;2022-08-07T04:55:21;6.40;;;5.80;;
11010;SDS011;5558;42.702;23.178;2022-08-07T04:57:57;5.87;;;5.37;;
11010;SDS011;5558;42.702;23.178;2022-08-07T05:00:37;6.00;;;5.50;;
11010;SDS011;5558;42.702;23.178;2022-08-07T05:03:13;6.20;;;5.60;;
11010;SDS011;5558;42.702;23.178;2022-08-07T05:05:47;6.17;;;5.57;;
11010;SDS011;5558;42.702;23.178;2022-08-07T05:08:19;6.13;;;5.60;;
11010;SDS011;5558;42.702;23.178;2022-08-07T05:10:54;6.10;;;5.50;;
11010;SDS011;5558;42.702;23.178;2022-08-07T05:13:29;5.63;;;5.13;;
11010;SDS011;5558;42.702;23.178;2022-08-07T05:16:03;6.20;;;5.60;;
11010;SDS011;5558;42.702;23.178;2022-08-07T05:18:33;5.43;;;5.00;;
11010;SDS011;5558;42.702;23.178;2022-08-07T05:21:07;5.17;;;4.60;;
11010;SDS011;5558;42.702;23.178;2022-08-07T05:23:37;4.87;;;4.47;;
11010;SDS011;5558;42.702;23.178;2022-08-07T05:26:11;4.40;;;4.00;;
11010;SDS011;5558;42.702;23.178;2022-08-07T05:28:43;3.60;;;3.30;;
11010;SDS011;5558;42.702;23.178;2022-08-07T05:31:11;4.03;;;3.67;;
11010;SDS011;5558;42.702;23.178;2022-08-07T05:33:41;4.20;;;3.80;;
11010;SDS011;5558;42.702;23.178;2022-08-07T05:36:09;3.70;;;3.40;;
11010;SDS011;5558;42.702;23.178;2022-08-07T05:38:38;3.70;;;3.40;;
11010;SDS011;5558;42.702;23.178;2022-08-07T05:41:06;3.70;;;3.40;;
11010;SDS011;5558;42.702;23.178;2022-08-07T05:43:33;4.30;;;3.90;;
11010;SDS011;5558;42.702;23.178;2022-08-07T05:46:02;4.10;;;3.70;;
11010;SDS011;5558;42.702;23.178;2022-08-07T05:48:29;4.20;;;3.80;;
11010;SDS011;5558;42.702;23.178;2022-08-07T05:50:56;4.10;;;3.70;;
11010;SDS011;5558;42.702;23.178;2022-08-07T05:53:25;4.03;;;3.63;;
11010;SDS011;5558;42.702;23.178;2022-08-07T05:55:52;4.30;;;3.90;;
11010;SDS011;5558;42.702;23.178;2022-08-07T05:58:20;4.03;;;3.73;;
11010;SDS011;5558;42.702;23.178;2022-08-07T06:00:49;4.30;;;3.87;;
11010;SDS011;5558;42.702;23.178;2022-08-07T06:03:19;3.67;;;3.37;;
11010;SDS011;5558;42.702;23.178;2022-08-07T06:05:48;3.87;;;3.50;;
11010;SDS011;5558;42.702;23.178;2022-08-07T06:08:15;3.63;;;3.33;;
11010;SDS011;5558;42.702;23.178;2022-08-07T06:10:42;3.73;;;3.43;;
11010;SDS011;5558;42.702;23.178;2022-08-07T06:13:09;3.77;;;3.23;;
11010;SDS011;5558;42.702;23.178;2022-08-07T06:15:36;3.63;;;3.33;;
11010;SDS011;5558;42.702;23.178;2022-08-07T06:18:05;3.77;;;3.47;;
11010;SDS011;5558;42.702;23.178;2022-08-07T06:20:35;3.70;;;3.40;;
11010;SDS011;5558;42.702;23.178;2022-08-07T06:23:02;3.80;;;3.50;;
11010;SDS011;5558;42.702;23.178;2022-08-07T06:25:32;3.80;;;3.50;;
11010;SDS011;5558;42.702;23.178;2022-08-07T06:28:02;3.90;;;3.60;;
11010;SDS011;5558;42.702;23.178;2022-08-07T06:30:29;3.80;;;3.50;;
11010;SDS011;5558;42.702;23.178;2022-08-07T06:32:57;4.00;;;3.60;;
11010;SDS011;5558;42.702;23.178;2022-08-07T06:35:24;3.90;;;3.60;;
11010;SDS011;5558;42.702;23.178;2022-08-07T06:37:52;4.10;;;3.67;;
11010;SDS011;5558;42.702;23.178;2022-08-07T06:40:20;4.40;;;4.00;;
11010;SDS011;5558;42.702;23.178;2022-08-07T06:42:47;4.77;;;4.37;;
11010;SDS011;5558;42.702;23.178;2022-08-07T06:45:17;4.50;;;4.10;;
11010;SDS011;5558;42.702;23.178;2022-08-07T06:47:45;5.10;;;4.23;;
11010;SDS011;5558;42.702;23.178;2022-08-07T06:50:12;4.83;;;4.43;;
11010;SDS011;5558;42.702;23.178;2022-08-07T06:52:41;4.90;;;4.50;;
11010;SDS011;5558;42.702;23.178;2022-08-07T06:55:14;4.97;;;4.50;;
11010;SDS011;5558;42.702;23.178;2022-08-07T06:57:43;5.50;;;5.00;;
11010;SDS011;5558;42.702;23.178;2022-08-07T07:00:11;5.00;;;4.60;;
11010;SDS011;5558;42.702;23.178;2022-08-07T07:02:40;5.10;;;4.60;;
11010;SDS011;5558;42.702;23.178;2022-08-07T07:05:08;6.97;;;5.43;;
11010;SDS011;5558;42.702;23.178;2022-08-07T07:07:35;5.70;;;5.10;;
11010;SDS011;5558;42.702;23.178;2022-08-07T07:10:02;6.17;;;5.10;;
11010;SDS011;5558;42.702;23.178;2022-08-07T07:12:39;5.80;;;4.97;;
11010;SDS011;5558;42.702;23.178;2022-08-07T07:15:12;5.50;;;5.00;;
11010;SDS011;5558;42.702;23.178;2022-08-07T07:17:44;6.03;;;5.43;;
11010;SDS011;5558;42.702;23.178;2022-08-07T07:20:16;6.07;;;5.47;;
11010;SDS011;5558;42.702;23.178;2022-08-07T07:22:46;5.40;;;4.90;;
11010;SDS011;5558;42.702;23.178;2022-08-07T07:25:14;5.30;;;4.80;;
11010;SDS011;5558;42.702;23.178;2022-08-07T07:27:46;5.43;;;5.00;;
11010;SDS011;5558;42.702;23.178;2022-08-07T07:30:17;5.67;;;5.17;;
11010;SDS011;5558;42.702;23.178;2022-08-07T07:32:44;5.37;;;4.87;;
11010;SDS011;5558;42.702;23.178;2022-08-07T07:35:11;5.53;;;5.03;;
11010;SDS011;5558;42.702;23.178;2022-08-07T07:37:40;5.30;;;4.80;;
11010;SDS011;5558;42.702;23.178;2022-08-07T07:40:11;5.40;;;4.90;;
11010;SDS011;5558;42.702;23.178;2022-08-07T07:42:41;4.90;;;4.50;;
11010;SDS011;5558;42.702;23.178;2022-08-07T07:45:10;5.30;;;4.80;;
11010;SDS011;5558;42.702;23.178;2022-08-07T07:47:40;5.30;;;4.80;;
11010;SDS011;5558;42.702;23.178;2022-08-07T07:50:09;5.00;;;4.50;;
11010;SDS011;5558;42.702;23.178;2022-08-07T07:52:38;5.07;;;4.60;;
11010;SDS011;5558;42.702;23.178;2022-08-07T07:55:09;5.30;;;4.80;;
11010;SDS011;5558;42.702;23.178;2022-08-07T07:57:35;6.03;;;4.90;;
11010;SDS011;5558;42.702;23.178;2022-08-07T08:00:05;5.13;;;4.73;;
11010;SDS011;5558;42.702;23.178;2022-08-07T08:02:34;5.30;;;4.80;;
11010;SDS011;5558;42.702;23.178;2022-08-07T08:05:06;5.30;;;4.80;;
11010;SDS011;5558;42.702;23.178;2022-08-07T08:07:35;5.40;;;4.93;;
11010;SDS011;5558;42.702;23.178;2022-08-07T08:10:04;4.80;;;4.40;;
11010;SDS011;5558;42.702;23.178;2022-08-07T08:12:33;5.43;;;4.93;;
11010;SDS011;5558;42.702;23.178;2022-08-07T08:15:00;5.40;;;4.90;;
11010;SDS011;5558;42.702;23.178;2022-08-07T08:17:27;5.30;;;4.90;;
11010;SDS011;5558;42.702;23.178;2022-08-07T08:20:00;5.43;;;4.90;;
11010;SDS011;5558;42.702;23.178;2022-08-07T08:22:29;5.50;;;5.00;;
11010;SDS011;5558;42.702;23.178;2022-08-07T08:25:15;5.50;;;5.00;;
11010;SDS011;5558;42.702;23.178;2022-08-07T08:28:01;5.80;;;5.23;;
11010;SDS011;5558;42.702;23.178;2022-08-07T08:30:31;5.40;;;4.67;;
11010;SDS011;5558;42.702;23.178;2022-08-07T08:33:01;5.50;;;5.00;;
11010;SDS011;5558;42.702;23.178;2022-08-07T08:35:32;6.00;;;5.40;;
11010;SDS011;5558;42.702;23.178;2022-08-07T08:38:02;5.80;;;5.30;;
11010;SDS011;5558;42.702;23.178;2022-08-07T08:40:33;6.77;;;5.40;;
11010;SDS011;5558;42.702;23.178;2022-08-07T08:43:07;6.13;;;5.53;;
11010;SDS011;5558;42.702;23.178;2022-08-07T08:45:40;6.50;;;5.77;;
11010;SDS011;5558;42.702;23.178;2022-08-07T08:48:16;6.13;;;5.53;;
11010;SDS011;5558;42.702;23.178;2022-08-07T08:50:53;6.63;;;5.97;;
11010;SDS011;5558;42.702;23.178;2022-08-07T08:53:24;6.83;;;6.23;;
11010;SDS011;5558;42.702;23.178;2022-08-07T08:56:11;6.77;;;6.17;;
11010;SDS011;5558;42.702;23.178;2022-08-07T08:58:45;6.70;;;6.10;;
11010;SDS011;5558;42.702;23.178;2022-08-07T09:01:19;6.93;;;6.33;;
11010;SDS011;5558;42.702;23.178;2022-08-07T09:03:52;7.17;;;6.47;;
11010;SDS011;5558;42.702;23.178;2022-08-07T09:06:38;7.07;;;6.43;;
11010;SDS011;5558;42.702;23.178;2022-08-07T09:09:27;7.67;;;6.97;;
11010;SDS011;5558;42.702;23.178;2022-08-07T09:12:10;7.50;;;6.80;;
11010;SDS011;5558;42.702;23.178;2022-08-07T09:14:51;8.73;;;6.90;;
11010;SDS011;5558;42.702;23.178;2022-08-07T09:17:30;7.53;;;6.83;;
11010;SDS011;5558;42.702;23.178;2022-08-07T09:20:04;6.87;;;6.27;;
11010;SDS011;5558;42.702;23.178;2022-08-07T09:22:46;7.23;;;6.57;;
11010;SDS011;5558;42.702;23.178;2022-08-07T09:25:23;7.20;;;6.50;;
11010;SDS011;5558;42.702;23.178;2022-08-07T09:27:56;7.00;;;6.30;;
11010;SDS011;5558;42.702;23.178;2022-08-07T09:30:32;6.90;;;6.20;;
11010;SDS011;5558;42.702;23.178;2022-08-07T09:33:13;7.23;;;6.53;;
11010;SDS011;5558;42.702;23.178;2022-08-07T09:35:49;6.87;;;6.17;;
11010;SDS011;5558;42.702;23.178;2022-08-07T09:38:24;6.77;;;6.13;;
11010;SDS011;5558;42.702;23.178;2022-08-07T09:41:02;6.90;;;6.00;;
11010;SDS011;5558;42.702;23.178;2022-08-07T09:43:39;7.43;;;6.40;;
11010;SDS011;5558;42.702;23.178;2022-08-07T09:46:23;7.20;;;6.10;;
11010;SDS011;5558;42.702;23.178;2022-08-07T09:49:00;6.60;;;6.00;;
11010;SDS011;5558;42.702;23.178;2022-08-07T09:51:43;6.83;;;6.07;;
11010;SDS011;5558;42.702;23.178;2022-08-07T09:54:23;6.40;;;5.90;;
11010;SDS011;5558;42.702;23.178;2022-08-07T09:57:08;5.60;;;5.10;;
11010;SDS011;5558;42.702;23.178;2022-08-07T09:59:59;6.40;;;5.80;;
11010;SDS011;5558;42.702;23.178;2022-08-07T10:02:38;6.13;;;5.43;;
11010;SDS011;5558;42.702;23.178;2022-08-07T10:08:24;5.63;;;5.13;;
11010;SDS011;5558;42.702;23.178;2022-08-07T10:11:13;6.10;;;5.50;;
11010;SDS011;5558;42.702;23.178;2022-08-07T10:14:03;5.77;;;5.27;;
11010;SDS011;5558;42.702;23.178;2022-08-07T10:16:57;5.07;;;4.67;;
11010;SDS011;5558;42.702;23.178;2022-08-07T10:19:42;5.27;;;4.80;;
11010;SDS011;5558;42.702;23.178;2022-08-07T10:22:37;5.90;;;4.90;;
11010;SDS011;5558;42.702;23.178;2022-08-07T10:25:29;5.57;;;5.07;;
11010;SDS011;5558;42.702;23.178;2022-08-07T10:28:11;5.27;;;4.87;;
11010;SDS011;5558;42.702;23.178;2022-08-07T10:30:52;5.90;;;5.23;;
11010;SDS011;5558;42.702;23.178;2022-08-07T10:33:29;5.67;;;5.17;;
11010;SDS011;5558;42.702;23.178;2022-08-07T10:36:15;5.13;;;4.63;;
11010;SDS011;5558;42.702;23.178;2022-08-07T10:38:50;5.60;;;5.10;;
11010;SDS011;5558;42.702;23.178;2022-08-07T10:41:24;5.30;;;4.80;;
11010;SDS011;5558;42.702;23.178;2022-08-07T10:44:02;6.10;;;4.53;;
11010;SDS011;5558;42.702;23.178;2022-08-07T10:46:38;5.27;;;4.73;;
11010;SDS011;5558;42.702;23.178;2022-08-07T10:49:11;5.10;;;4.70;;
11010;SDS011;5558;42.702;23.178;2022-08-07T10:51:49;5.10;;;4.60;;
11010;SDS011;5558;42.702;23.178;2022-08-07T10:54:25;5.47;;;4.97;;
11010;SDS011;5558;42.702;23.178;2022-08-07T10:57:07;5.53;;;5.03;;
11010;SDS011;5558;42.702;23.178;2022-08-07T11:02:35;4.63;;;4.23;;
11010;SDS011;5558;42.702;23.178;2022-08-07T11:05:10;3.90;;;3.60;;
11010;SDS011;5558;42.702;23.178;2022-08-07T11:07:51;4.07;;;3.77;;
11010;SDS011;5558;42.702;23.178;2022-08-07T11:10:26;4.87;;;4.47;;
11010;SDS011;5558;42.702;23.178;2022-08-07T11:12:58;5.20;;;4.70;;
11010;SDS011;5558;42.702;23.178;2022-08-07T11:15:34;5.53;;;5.03;;
11010;SDS011;5558;42.702;23.178;2022-08-07T11:18:08;5.30;;;4.43;;
11010;SDS011;5558;42.702;23.178;2022-08-07T11:20:40;5.23;;;4.73;;
11010;SDS011;5558;42.702;23.178;2022-08-07T11:23:16;5.23;;;4.73;;
11010;SDS011;5558;42.702;23.178;2022-08-07T11:25:50;5.37;;;4.63;;
11010;SDS011;5558;42.702;23.178;2022-08-07T11:28:22;5.43;;;5.00;;
11010;SDS011;5558;42.702;23.178;2022-08-07T11:30:58;5.63;;;4.83;;
11010;SDS011;5558;42.702;23.178;2022-08-07T11:33:33;4.87;;;4.47;;
11010;SDS011;5558;42.702;23.178;2022-08-07T11:36:11;4.87;;;4.47;;
11010;SDS011;5558;42.702;23.178;2022-08-07T11:38:45;5.57;;;4.93;;
11010;SDS011;5558;42.702;23.178;2022-08-07T11:41:21;5.20;;;4.70;;
11010;SDS011;5558;42.702;23.178;2022-08-07T11:43:51;5.13;;;4.73;;
11010;SDS011;5558;42.702;23.178;2022-08-07T11:46:33;5.40;;;4.90;;
11010;SDS011;5558;42.702;23.178;2022-08-07T11:52:14;5.63;;;4.87;;
11010;SDS011;5558;42.702;23.178;2022-08-07T11:54:57;4.80;;;4.40;;
11010;SDS011;5558;42.702;23.178;2022-08-07T11:57:31;5.10;;;4.60;;
11010;SDS011;5558;42.702;23.178;2022-08-07T12:00:06;6.23;;;4.80;;
11010;SDS011;5558;42.702;23.178;2022-08-07T12:05:42;5.67;;;5.10;;
11010;SDS011;5558;42.702;23.178;2022-08-07T12:08:26;5.50;;;5.00;;
11010;SDS011;5558;42.702;23.178;2022-08-07T12:10:57;5.90;;;5.27;;
11010;SDS011;5558;42.702;23.178;2022-08-07T12:13:26;5.77;;;5.27;;
11010;SDS011;5558;42.702;23.178;2022-08-07T12:16:02;6.27;;;5.40;;
11010;SDS011;5558;42.702;23.178;2022-08-07T12:18:36;5.40;;;5.00;;
11010;SDS011;5558;42.702;23.178;2022-08-07T12:21:11;5.70;;;5.20;;
11010;SDS011;5558;42.702;23.178;2022-08-07T12:23:48;5.17;;;4.70;;
11010;SDS011;5558;42.702;23.178;2022-08-07T12:26:22;5.50;;;5.00;;
11010;SDS011;5558;42.702;23.178;2022-08-07T12:28:55;6.03;;;5.53;;
11010;SDS011;5558;42.702;23.178;2022-08-07T12:31:30;5.93;;;5.43;;
11010;SDS011;5558;42.702;23.178;2022-08-07T12:34:04;6.10;;;5.60;;
11010;SDS011;5558;42.702;23.178;2022-08-07T12:36:33;6.83;;;6.13;;
11010;SDS011;5558;42.702;23.178;2022-08-07T12:39:02;6.23;;;5.63;;
11010;SDS011;5558;42.702;23.178;2022-08-07T12:41:32;6.20;;;5.40;;
11010;SDS011;5558;42.702;23.178;2022-08-07T12:44:02;5.80;;;5.30;;
11010;SDS011;5558;42.702;23.178;2022-08-07T12:46:39;6.30;;;5.70;;
11010;SDS011;5558;42.702;23.178;2022-08-07T12:49:20;5.90;;;5.30;;
11010;SDS011;5558;42.702;23.178;2022-08-07T12:52:00;5.63;;;5.13;;
11010;SDS011;5558;42.702;23.178;2022-08-07T12:54:31;6.00;;;5.40;;
11010;SDS011;5558;42.702;23.178;2022-08-07T12:57:05;6.10;;;5.50;;
11010;SDS011;5558;42.702;23.178;2022-08-07T12:59:34;5.60;;;5.10;;
11010;SDS011;5558;42.702;23.178;2022-08-07T13:02:06;5.57;;;5.07;;
11010;SDS011;5558;42.702;23.178;2022-08-07T13:05:02;5.03;;;4.63;;
11010;SDS011;5558;42.702;23.178;2022-08-07T13:10:40;5.20;;;4.70;;
11010;SDS011;5558;42.702;23.178;2022-08-07T13:13:29;5.00;;;4.50;;
11010;SDS011;5558;42.702;23.178;2022-08-07T13:16:04;4.97;;;4.50;;
11010;SDS011;5558;42.702;23.178;2022-08-07T13:18:42;5.27;;;4.77;;
11010;SDS011;5558;42.702;23.178;2022-08-07T13:21:17;5.50;;;5.00;;
11010;SDS011;5558;42.702;23.178;2022-08-07T13:23:49;5.07;;;4.67;;
11010;SDS011;5558;42.702;23.178;2022-08-07T13:26:21;5.10;;;4.70;;
11010;SDS011;5558;42.702;23.178;2022-08-07T13:28:56;5.13;;;4.73;;
11010;SDS011;5558;42.702;23.178;2022-08-07T13:31:30;5.30;;;4.80;;
11010;SDS011;5558;42.702;23.178;2022-08-07T13:34:04;4.97;;;4.50;;
11010;SDS011;5558;42.702;23.178;2022-08-07T13:36:40;5.47;;;4.93;;
11010;SDS011;5558;42.702;23.178;2022-08-07T13:39:16;5.10;;;4.60;;
11010;SDS011;5558;42.702;23.178;2022-08-07T13:41:51;5.10;;;4.60;;
11010;SDS011;5558;42.702;23.178;2022-08-07T13:44:20;5.20;;;4.70;;
11010;SDS011;5558;42.702;23.178;2022-08-07T13:46:50;4.93;;;4.43;;
11010;SDS011;5558;42.702;23.178;2022-08-07T13:49:21;4.53;;;4.13;;
11010;SDS011;5558;42.702;23.178;2022-08-07T13:51:50;4.90;;;4.50;;
11010;SDS011;5558;42.702;23.178;2022-08-07T13:54:20;4.77;;;4.37;;
11010;SDS011;5558;42.702;23.178;2022-08-07T13:56:54;4.40;;;4.10;;
11010;SDS011;5558;42.702;23.178;2022-08-07T13:59:24;5.13;;;4.63;;
11010;SDS011;5558;42.702;23.178;2022-08-07T14:01:55;4.90;;;4.50;;
11010;SDS011;5558;42.702;23.178;2022-08-07T14:04:31;5.40;;;4.87;;
11010;SDS011;5558;42.702;23.178;2022-08-07T14:07:05;5.20;;;4.70;;
11010;SDS011;5558;42.702;23.178;2022-08-07T14:09:34;5.37;;;4.80;;
11010;SDS011;5558;42.702;23.178;2022-08-07T14:12:04;5.57;;;5.07;;
11010;SDS011;5558;42.702;23.178;2022-08-07T14:14:37;6.37;;;4.87;;
11010;SDS011;5558;42.702;23.178;2022-08-07T14:17:07;6.20;;;5.00;;
11010;SDS011;5558;42.702;23.178;2022-08-07T14:19:48;5.33;;;4.83;;
11010;SDS011;5558;42.702;23.178;2022-08-07T14:22:21;5.60;;;5.03;;
11010;SDS011;5558;42.702;23.178;2022-08-07T14:24:53;5.80;;;4.90;;
11010;SDS011;5558;42.702;23.178;2022-08-07T14:27:33;5.43;;;4.83;;
11010;SDS011;5558;42.702;23.178;2022-08-07T14:30:05;5.40;;;4.67;;
11010;SDS011;5558;42.702;23.178;2022-08-07T14:32:38;4.77;;;4.37;;
11010;SDS011;5558;42.702;23.178;2022-08-07T14:35:09;5.13;;;4.70;;
11010;SDS011;5558;42.702;23.178;2022-08-07T14:37:43;5.50;;;5.00;;
11010;SDS011;5558;42.702;23.178;2022-08-07T14:40:14;6.00;;;5.50;;
11010;SDS011;5558;42.702;23.178;2022-08-07T14:42:43;5.50;;;5.00;;
11010;SDS011;5558;42.702;23.178;2022-08-07T14:45:11;5.57;;;5.17;;
11010;SDS011;5558;42.702;23.178;2022-08-07T14:47:40;5.73;;;5.23;;
11010;SDS011;5558;42.702;23.178;2022-08-07T14:50:09;6.20;;;5.60;;
11010;SDS011;5558;42.702;23.178;2022-08-07T14:52:44;6.07;;;5.53;;
11010;SDS011;5558;42.702;23.178;2022-08-07T14:55:13;6.43;;;5.57;;
11010;SDS011;5558;42.702;23.178;2022-08-07T14:57:41;5.73;;;5.23;;
11010;SDS011;5558;42.702;23.178;2022-08-07T15:00:14;6.60;;;5.80;;
11010;SDS011;5558;42.702;23.178;2022-08-07T15:02:43;6.13;;;5.53;;
11010;SDS011;5558;42.702;23.178;2022-08-07T15:05:16;5.70;;;5.20;;
11010;SDS011;5558;42.702;23.178;2022-08-07T15:07:45;7.10;;;5.70;;
11010;SDS011;5558;42.702;23.178;2022-08-07T15:10:16;6.20;;;5.70;;
11010;SDS011;5558;42.702;23.178;2022-08-07T15:12:44;6.23;;;5.60;;
11010;SDS011;5558;42.702;23.178;2022-08-07T15:15:15;6.57;;;5.97;;
11010;SDS011;5558;42.702;23.178;2022-08-07T15:17:52;6.23;;;5.63;;
11010;SDS011;5558;42.702;23.178;2022-08-07T15:20:21;6.30;;;5.70;;
11010;SDS011;5558;42.702;23.178;2022-08-07T15:22:52;6.47;;;5.83;;
11010;SDS011;5558;42.702;23.178;2022-08-07T15:25:22;5.97;;;5.37;;
11010;SDS011;5558;42.702;23.178;2022-08-07T15:27:51;6.10;;;5.43;;
11010;SDS011;5558;42.702;23.178;2022-08-07T15:30:22;6.30;;;5.70;;